createdAt,value
2022-09-21T00:02:10.274Z,19.3678
2022-09-21T00:07:11.978Z,19.52217
2022-09-21T00:12:13.570Z,19.59236
2022-09-21T00:17:15.197Z,18.11824
2022-09-21T00:22:16.809Z,17.57764
2022-09-21T00:27:18.436Z,17.56017
2022-09-21T00:32:20.115Z,17.10216
2022-09-21T00:37:21.763Z,16.86235
2022-09-21T00:42:23.364Z,17.13011
2022-09-21T00:47:25.019Z,17.09517
2022-09-21T00:52:26.742Z,17.08342
2022-09-21T00:57:28.503Z,16.53711
2022-09-21T01:02:30.214Z,16.4126
2022-09-21T01:07:32.006Z,16.55585
2022-09-21T01:12:33.608Z,16.73054
2022-09-21T01:17:35.488Z,16.76929
2022-09-21T01:22:37.090Z,16.5568
2022-09-21T01:27:38.667Z,16.8992
2022-09-21T01:32:40.402Z,15.16849
2022-09-21T01:37:42.069Z,15.59822
2022-09-21T01:42:43.685Z,16.3856
2022-09-21T01:47:45.279Z,15.68462
2022-09-21T01:52:46.900Z,15.90631
2022-09-21T01:57:48.532Z,15.81992
2022-09-21T02:02:50.237Z,15.59251
2022-09-21T02:07:51.865Z,15.55408
2022-09-21T02:12:53.469Z,15.25583
2022-09-21T02:17:55.297Z,15.26123
2022-09-21T02:22:56.904Z,15.14657
2022-09-21T02:27:58.542Z,14.79338
2022-09-21T02:33:00.143Z,14.49102
2022-09-21T02:38:01.732Z,14.57201
2022-09-21T02:43:03.429Z,14.33411
2022-09-21T02:48:05.014Z,13.74526
2022-09-21T02:53:06.657Z,13.461
2022-09-21T02:58:08.319Z,13.55215
2022-09-21T03:03:09.917Z,13.65633
2022-09-21T03:08:11.599Z,13.5639
2022-09-21T03:13:13.116Z,13.08241
2022-09-21T03:18:14.784Z,12.89375
2022-09-21T03:23:16.396Z,12.98871
2022-09-21T03:28:17.988Z,12.64125
2022-09-21T03:33:19.623Z,12.23979
2022-09-21T03:38:21.291Z,11.86407
2022-09-21T03:43:22.953Z,12.48308
2022-09-21T03:48:24.619Z,12.43989
2022-09-21T03:53:26.255Z,12.55677
2022-09-21T03:58:27.981Z,12.4167
2022-09-21T04:03:29.593Z,11.8628
2022-09-21T04:08:31.294Z,12.02033
2022-09-21T04:13:33.017Z,12.08226
2022-09-21T04:18:34.651Z,10.9878
2022-09-21T04:23:36.256Z,11.26062
2022-09-21T04:28:37.900Z,10.88267
2022-09-21T04:33:39.512Z,10.97891
2022-09-21T04:38:41.144Z,11.2476
2022-09-21T04:43:42.773Z,11.3505
2022-09-21T04:48:44.484Z,11.5868
2022-09-21T04:53:46.094Z,11.11611
2022-09-21T04:58:47.678Z,10.92682
2022-09-21T05:03:49.342Z,10.51807
2022-09-21T05:08:51.023Z,10.78231
2022-09-21T05:13:52.638Z,10.60255
2022-09-21T05:18:54.292Z,10.41358
2022-09-21T05:23:55.914Z,10.57651
2022-09-21T05:28:57.575Z,10.41199
2022-09-21T05:33:59.311Z,10.69529
2022-09-21T05:39:00.985Z,10.31226
2022-09-21T05:44:02.846Z,10.16204
2022-09-21T05:49:04.479Z,10.30655
2022-09-21T05:54:06.193Z,9.32644
2022-09-21T05:59:07.835Z,9.73805
2022-09-21T06:04:09.612Z,9.58592
2022-09-21T06:09:11.474Z,9.16415
2022-09-21T06:14:13.123Z,9.45189
2022-09-21T06:19:14.837Z,9.39822
2022-09-21T06:24:16.427Z,9.25562
2022-09-21T06:29:18.081Z,9.12858
2022-09-21T06:34:19.793Z,9.06538
2022-09-21T06:39:21.444Z,9.14827
2022-09-21T06:44:23.064Z,9.295
2022-09-21T06:49:24.659Z,9.11619
2022-09-21T06:54:26.297Z,8.95962
2022-09-21T06:59:27.899Z,9.05172
2022-09-21T07:04:29.525Z,8.91865
2022-09-21T07:15:02.972Z,8.66235
2022-09-21T07:20:04.649Z,8.25742
2022-09-21T07:25:06.234Z,8.36985
2022-09-21T07:30:07.856Z,8.31649
2022-09-21T07:35:09.473Z,8.4051
2022-09-21T07:40:11.275Z,8.22471
2022-09-21T07:45:12.907Z,8.53817
2022-09-21T07:50:14.531Z,8.54357
2022-09-21T07:55:16.121Z,7.03184
2022-09-21T08:00:17.740Z,7.77183
2022-09-21T08:05:19.510Z,8.16691
2022-09-21T08:10:21.116Z,7.76452
2022-09-21T08:15:46.859Z,7.4806
2022-09-21T08:20:50.895Z,7.6378
2022-09-21T08:25:52.565Z,6.82255
2022-09-21T08:30:54.181Z,7.27829
2022-09-21T08:35:55.799Z,7.74864
2022-09-21T08:40:57.458Z,7.78167
2022-09-21T08:45:59.085Z,7.77468
2022-09-21T08:51:00.730Z,7.15126
2022-09-21T08:56:02.423Z,7.3885
2022-09-21T09:01:07.056Z,6.98929
2022-09-21T09:06:09.077Z,7.0636
2022-09-21T09:11:10.656Z,6.71712
2022-09-21T09:16:12.343Z,7.17698
2022-09-21T09:21:16.376Z,7.60509
2022-09-21T09:26:19.749Z,7.80898
2022-09-21T09:31:21.464Z,8.0043
2022-09-21T09:36:40.195Z,7.8887
2022-09-21T09:41:56.021Z,7.25892
2022-09-21T09:46:57.943Z,7.1449
2022-09-21T09:51:59.614Z,6.89115
2022-09-21T09:57:01.301Z,7.29131
2022-09-21T10:02:03.202Z,7.03629
2022-09-21T10:07:04.883Z,7.17857
2022-09-21T10:12:10.335Z,6.98611
2022-09-21T10:17:12.232Z,6.93276
2022-09-21T10:22:13.914Z,7.04614
2022-09-21T10:27:15.596Z,6.72633
2022-09-21T10:32:17.292Z,6.9588
2022-09-21T10:37:18.857Z,6.9318
2022-09-21T10:42:20.493Z,6.94578
2022-09-21T10:47:22.119Z,6.80286
2022-09-21T10:52:23.742Z,6.558
2022-09-21T10:57:25.348Z,6.9264
2022-09-21T11:02:27.066Z,6.26456
2022-09-21T11:07:28.724Z,5.86154
2022-09-21T11:12:30.426Z,6.55356
2022-09-21T11:17:32.048Z,6.7908
2022-09-21T11:22:33.681Z,6.66122
2022-09-21T11:27:35.322Z,5.87139
2022-09-21T11:32:36.914Z,5.39882
2022-09-21T11:37:38.523Z,5.48203
2022-09-21T11:42:40.149Z,5.76214
2022-09-21T11:47:41.790Z,5.27274
2022-09-21T11:52:43.421Z,5.80914
2022-09-21T11:57:45.001Z,5.94792
2022-09-21T12:02:46.915Z,6.08417
2022-09-21T12:07:48.629Z,5.80533
2022-09-21T12:12:50.231Z,6.00985
2022-09-21T12:17:51.835Z,5.53697
2022-09-21T12:22:53.442Z,5.35055
2022-09-21T12:27:55.074Z,5.48965
2022-09-21T12:32:56.688Z,5.17017
2022-09-21T12:37:58.297Z,5.86853
2022-09-21T12:42:59.933Z,5.01042
2022-09-21T12:48:01.501Z,4.91832
2022-09-21T12:53:03.193Z,5.51887
2022-09-21T12:58:15.097Z,5.54491
2022-09-21T13:03:17.891Z,5.06346
2022-09-21T13:08:19.540Z,4.95707
2022-09-21T13:13:21.191Z,5.4201
2022-09-21T13:18:22.834Z,5.33245
2022-09-21T13:23:24.461Z,5.46266
2022-09-21T13:28:26.098Z,5.32419
2022-09-21T13:33:27.916Z,4.87767
2022-09-21T13:38:29.527Z,4.95199
2022-09-21T13:43:31.100Z,5.02313
2022-09-21T13:48:32.755Z,5.06632
2022-09-21T13:53:34.358Z,5.47758
2022-09-21T13:58:35.952Z,5.60335
2022-09-21T14:03:37.621Z,5.17493
2022-09-21T14:08:39.231Z,4.60964
2022-09-21T14:13:40.839Z,4.62393
2022-09-21T14:18:42.431Z,4.85608
2022-09-21T14:23:44.198Z,4.93865
2022-09-21T14:28:45.820Z,5.04313
2022-09-21T14:33:47.411Z,4.87894
2022-09-21T14:38:50.400Z,5.81454
2022-09-21T14:43:53.434Z,8.00081
2022-09-21T14:48:55.080Z,8.22725
2022-09-21T14:53:56.860Z,8.5026
2022-09-21T14:58:58.553Z,8.18692
2022-09-21T15:04:00.273Z,8.52642
2022-09-21T15:09:01.953Z,8.6957
2022-09-21T15:14:03.663Z,9.16352
2022-09-21T15:19:05.298Z,9.27753
2022-09-21T15:24:06.894Z,9.36741
2022-09-21T15:29:09.977Z,9.23307
2022-09-21T15:34:12.087Z,9.92225
2022-09-21T15:39:13.779Z,10.40627
2022-09-21T15:44:15.381Z,10.74071
2022-09-21T15:49:17.038Z,10.42724
2022-09-21T15:54:18.636Z,11.05704
2022-09-21T15:59:20.262Z,10.36467
2022-09-21T16:04:22.128Z,9.59926
2022-09-21T16:09:23.938Z,11.42037
2022-09-21T16:14:25.625Z,10.58064
2022-09-21T16:19:27.288Z,11.00908
2022-09-21T16:24:28.916Z,11.78054
2022-09-21T16:29:30.537Z,11.90631
2022-09-21T16:34:32.186Z,12.28235
2022-09-21T16:39:33.837Z,13.48037
2022-09-21T16:44:35.443Z,13.94472
2022-09-21T16:49:37.078Z,13.89327
2022-09-21T16:54:38.765Z,13.91074
2022-09-21T16:59:40.383Z,14.20326
2022-09-21T17:04:41.998Z,13.76781
2022-09-21T17:09:43.604Z,15.16404
2022-09-21T17:14:47.006Z,15.49182
2022-09-21T17:19:49.391Z,15.5077
2022-09-21T17:24:52.266Z,15.45021
2022-09-21T17:29:54.339Z,15.30506
2022-09-21T17:34:56.051Z,15.30379
2022-09-21T17:39:57.701Z,15.23265
2022-09-21T17:44:59.424Z,16.50471
2022-09-21T17:50:01.169Z,16.60063
2022-09-21T17:55:05.901Z,17.24445
2022-09-21T18:00:07.882Z,17.31179
2022-09-21T18:05:09.508Z,18.42793
2022-09-21T18:10:11.105Z,17.92417
2022-09-21T18:15:12.693Z,16.4901
2022-09-21T18:20:14.313Z,16.2125
2022-09-21T18:25:15.996Z,16.3243
2022-09-21T18:30:17.601Z,16.46247
2022-09-21T18:35:19.997Z,17.17108
2022-09-21T18:40:21.688Z,18.23132
2022-09-21T18:45:23.501Z,17.84889
2022-09-21T18:50:25.081Z,16.37862
2022-09-21T18:55:26.698Z,16.96812
2022-09-21T19:00:28.321Z,17.14821
2022-09-21T19:05:29.966Z,17.49093
2022-09-21T19:10:31.603Z,16.83345
2022-09-21T19:15:58.471Z,16.76008
2022-09-21T19:21:01.821Z,15.82755
2022-09-21T19:26:03.485Z,17.68246
2022-09-21T19:31:05.314Z,16.99004
2022-09-21T19:36:06.954Z,18.65281
2022-09-21T19:41:08.559Z,18.94725
2022-09-21T19:46:10.223Z,18.69601
2022-09-21T19:51:11.892Z,18.93963
2022-09-21T19:56:13.533Z,19.05906
2022-09-21T20:01:15.248Z,19.19183
2022-09-21T20:06:16.969Z,19.27727
2022-09-21T20:11:18.609Z,20.8521
2022-09-21T20:16:20.337Z,21.02839
2022-09-21T20:21:22.065Z,20.35309
2022-09-21T20:26:23.711Z,20.88164
2022-09-21T20:31:25.414Z,21.36604
2022-09-21T20:36:27.096Z,21.25836
2022-09-21T20:41:28.749Z,20.382
2022-09-21T20:46:30.449Z,19.47674
2022-09-21T20:51:32.104Z,19.76865
2022-09-21T20:56:33.751Z,21.42448
2022-09-21T21:01:35.356Z,21.51374
2022-09-21T21:06:37.039Z,20.02752
2022-09-21T21:11:38.680Z,19.82487
2022-09-21T21:16:40.347Z,19.30205
2022-09-21T21:21:42.041Z,19.42275
2022-09-21T21:27:01.182Z,19.82932
2022-09-21T21:32:04.290Z,19.03778
2022-09-21T21:37:06.017Z,19.92969
2022-09-21T21:42:07.836Z,20.53986
2022-09-21T21:47:37.624Z,19.74927
2022-09-21T21:52:40.244Z,20.19682
2022-09-21T21:57:42.122Z,21.5004
2022-09-21T22:02:43.753Z,20.04022
2022-09-21T22:07:45.362Z,19.70703
2022-09-21T22:12:47.064Z,20.02434
2022-09-21T22:17:48.664Z,20.20698
2022-09-21T22:22:50.250Z,19.63397
2022-09-21T22:27:51.850Z,19.748
2022-09-21T22:32:53.455Z,19.16483
2022-09-21T22:37:55.068Z,19.8633
2022-09-21T22:42:56.656Z,19.27505
2022-09-21T22:47:58.299Z,18.96472
2022-09-21T22:52:59.895Z,18.45143
2022-09-21T22:58:01.545Z,18.59468
2022-09-21T23:08:23.642Z,18.10713
2022-09-21T23:13:25.345Z,18.25387
2022-09-21T23:18:26.971Z,18.92756
2022-09-21T23:23:28.680Z,19.39257
2022-09-21T23:28:30.530Z,18.65789
2022-09-21T23:33:32.227Z,18.82115
2022-09-21T23:38:34.037Z,19.56123
2022-09-21T23:43:35.855Z,19.16864
2022-09-21T23:48:37.480Z,19.43228
2022-09-21T23:53:39.080Z,19.4904
2022-09-21T23:58:40.704Z,19.09082
